Time;durP1;ratioP1;P1;durP2;ratioP2;P2;SDS_P1;SDS_P2;PMS_P1;PMS_P2;Temp;Humidity;BMP_temperature;BMP_pressure;BME280_temperature;BME280_humidity;BME280_pressure;Samples;Min_cycle;Max_cycle;Signal;HPM_P1;HPM_P2
2022/03/16 00:01:30;;;;;;;38.60;24.98;;;7.50;99.90;;;;;;5038651;28;20104;-77
2022/03/16 00:03:56;;;;;;;31.30;21.92;;;7.50;99.90;;;;;;5035383;28;20124;-77
2022/03/16 00:06:21;;;;;;;33.88;22.65;;;7.50;99.90;;;;;;5034807;28;20042;-78
2022/03/16 00:08:47;;;;;;;42.88;27.77;;;7.50;99.90;;;;;;5046724;28;20087;-77
2022/03/16 00:11:13;;;;;;;38.47;26.15;;;7.50;99.90;;;;;;5036497;28;20056;-77
2022/03/16 00:13:39;;;;;;;39.08;24.85;;;7.40;99.90;;;;;;5032273;28;20022;-77
2022/03/16 00:16:05;;;;;;;41.38;25.90;;;7.40;99.90;;;;;;5036552;28;20033;-78
2022/03/16 00:18:30;;;;;;;37.75;24.67;;;7.40;99.90;;;;;;5038679;28;20021;-77
2022/03/16 00:20:58;;;;;;;47.20;29.92;;;7.40;99.90;;;;;;5042367;28;20421;-76
2022/03/16 00:23:25;;;;;;;46.10;26.63;;;7.40;99.90;;;;;;5039093;28;20052;-78
2022/03/16 00:25:50;;;;;;;48.03;29.63;;;7.30;99.90;;;;;;5036232;28;20033;-76
2022/03/16 00:28:16;;;;;;;40.17;27.17;;;7.30;99.90;;;;;;5029950;28;20037;-78
2022/03/16 00:30:42;;;;;;;46.90;30.35;;;7.30;99.90;;;;;;5037712;28;20025;-77
2022/03/16 00:33:08;;;;;;;42.58;28.58;;;7.30;99.90;;;;;;5041559;28;20033;-77
2022/03/16 00:35:34;;;;;;;45.83;29.60;;;7.20;99.90;;;;;;5036286;28;20470;-77
2022/03/16 00:37:59;;;;;;;46.33;29.27;;;7.30;99.90;;;;;;5038186;28;20029;-76
2022/03/16 00:40:25;;;;;;;47.53;29.13;;;7.20;99.90;;;;;;5035773;28;20032;-78
2022/03/16 00:42:51;;;;;;;39.25;25.65;;;7.20;99.90;;;;;;5042694;28;20473;-76
2022/03/16 00:45:16;;;;;;;48.65;29.52;;;7.20;99.90;;;;;;5054734;28;20029;-76
2022/03/16 00:47:42;;;;;;;46.17;30.13;;;7.20;99.90;;;;;;5025051;28;20045;-77
2022/03/16 00:50:08;;;;;;;41.17;28.20;;;7.10;99.90;;;;;;5040622;28;20113;-77
2022/03/16 00:52:34;;;;;;;50.08;30.95;;;7.10;99.90;;;;;;5033272;28;20139;-77
2022/03/16 00:54:59;;;;;;;52.72;30.70;;;7.10;99.90;;;;;;5039899;28;20096;-78
2022/03/16 00:57:25;;;;;;;54.15;32.47;;;7.20;99.90;;;;;;5038550;28;20440;-76
2022/03/16 00:59:51;;;;;;;49.55;29.38;;;7.20;99.90;;;;;;5044042;28;20048;-76
2022/03/16 01:02:16;;;;;;;45.53;28.40;;;7.10;99.90;;;;;;5038444;28;20030;-78
2022/03/16 01:04:42;;;;;;;45.42;27.25;;;7.10;99.90;;;;;;5036901;28;20482;-78
2022/03/16 01:07:08;;;;;;;42.08;28.48;;;7.00;99.90;;;;;;5030767;28;20076;-78
2022/03/16 01:09:34;;;;;;;40.40;25.50;;;7.00;99.90;;;;;;5031029;28;20075;-78
2022/03/16 01:12:01;;;;;;;41.05;25.58;;;7.00;99.90;;;;;;5039332;28;20040;-79
2022/03/16 01:14:27;;;;;;;44.38;29.15;;;7.00;99.90;;;;;;5042420;28;20083;-79
2022/03/16 01:16:53;;;;;;;47.63;28.75;;;7.00;99.90;;;;;;5046794;28;20025;-78
2022/03/16 01:19:18;;;;;;;43.53;28.17;;;6.90;99.90;;;;;;5039651;28;20025;-80
2022/03/16 01:21:44;;;;;;;43.70;28.40;;;6.90;99.90;;;;;;5031072;28;20048;-80
2022/03/16 01:24:10;;;;;;;44.08;28.15;;;6.90;99.90;;;;;;5028760;28;20041;-80
2022/03/16 01:26:36;;;;;;;42.38;28.35;;;7.00;99.90;;;;;;5043826;28;20042;-81
2022/03/16 01:29:02;;;;;;;46.22;28.70;;;6.90;99.90;;;;;;5029734;28;20075;-81
2022/03/16 01:31:28;;;;;;;47.38;29.63;;;6.90;99.90;;;;;;5034842;28;20040;-79
2022/03/16 01:33:54;;;;;;;47.85;30.48;;;6.90;99.90;;;;;;5027230;28;20018;-79
2022/03/16 01:36:20;;;;;;;46.13;31.13;;;6.80;99.90;;;;;;5036230;28;20422;-79
2022/03/16 01:38:46;;;;;;;48.55;30.23;;;6.90;99.90;;;;;;5037958;28;20025;-78
2022/03/16 01:41:13;;;;;;;44.58;29.58;;;6.90;99.90;;;;;;5031687;28;20022;-79
2022/03/16 01:43:39;;;;;;;46.65;29.77;;;6.80;99.90;;;;;;5040144;28;20433;-79
2022/03/16 01:46:05;;;;;;;52.40;32.15;;;6.80;99.90;;;;;;5037529;28;20496;-78
2022/03/16 01:48:31;;;;;;;47.75;31.25;;;6.80;99.90;;;;;;5031605;28;20040;-78
2022/03/16 01:50:57;;;;;;;52.15;33.72;;;6.80;99.90;;;;;;5037525;28;20029;-78
2022/03/16 01:53:24;;;;;;;53.03;32.25;;;6.80;99.90;;;;;;5026113;28;20022;-79
2022/03/16 01:55:50;;;;;;;52.67;31.92;;;6.70;99.90;;;;;;5040850;28;20029;-76
2022/03/16 01:58:17;;;;;;;52.00;31.10;;;6.70;99.90;;;;;;5029471;28;20033;-77
2022/03/16 02:00:43;;;;;;;52.75;32.03;;;6.80;99.90;;;;;;5031755;28;20117;-78
2022/03/16 02:03:09;;;;;;;49.67;30.08;;;6.80;99.90;;;;;;5040589;28;20096;-79
2022/03/16 02:05:36;;;;;;;48.33;29.70;;;6.70;99.90;;;;;;5033551;28;20497;-79
2022/03/16 02:08:03;;;;;;;50.15;28.13;;;6.70;99.90;;;;;;5032096;28;20049;-79
2022/03/16 02:10:29;;;;;;;51.05;30.77;;;6.70;99.90;;;;;;5032405;28;20378;-78
2022/03/16 02:12:56;;;;;;;45.67;27.92;;;6.70;99.90;;;;;;5031263;28;20494;-78
2022/03/16 02:15:23;;;;;;;55.63;30.13;;;6.70;99.90;;;;;;5022143;28;20096;-78
2022/03/16 02:17:50;;;;;;;45.35;29.27;;;6.70;99.90;;;;;;5042104;28;20488;-78
2022/03/16 02:20:17;;;;;;;50.05;28.55;;;6.70;99.90;;;;;;5030349;28;20040;-79
2022/03/16 02:22:50;;;;;;;45.20;28.77;;;6.70;99.90;;;;;;5035892;28;20049;-78
2022/03/16 02:25:16;;;;;;;45.15;28.15;;;6.70;99.90;;;;;;5037437;28;20041;-77
2022/03/16 02:27:42;;;;;;;45.83;28.88;;;6.60;99.90;;;;;;5030941;28;20021;-76
2022/03/16 02:30:08;;;;;;;46.33;28.15;;;6.60;99.90;;;;;;5038065;28;20068;-77
2022/03/16 02:32:34;;;;;;;41.33;26.50;;;6.60;99.90;;;;;;5028593;28;20389;-77
2022/03/16 02:35:00;;;;;;;51.67;30.05;;;6.50;99.90;;;;;;5036264;28;20029;-77
2022/03/16 02:37:26;;;;;;;46.95;28.17;;;6.60;99.90;;;;;;5039053;28;20029;-78
2022/03/16 02:39:52;;;;;;;41.97;25.85;;;6.60;99.90;;;;;;5032494;28;20083;-77
2022/03/16 02:42:17;;;;;;;55.08;31.23;;;6.60;99.90;;;;;;5052798;28;20485;-77
2022/03/16 02:44:43;;;;;;;52.00;31.30;;;6.50;99.90;;;;;;5024448;28;20049;-77
2022/03/16 02:47:09;;;;;;;45.70;28.30;;;6.60;99.90;;;;;;5034586;28;20032;-77
2022/03/16 02:49:34;;;;;;;48.08;28.08;;;6.60;99.90;;;;;;5023545;28;20029;-76
2022/03/16 02:52:06;;;;;;;48.30;29.33;;;6.60;99.90;;;;;;5037307;28;20040;-77
2022/03/16 02:54:32;;;;;;;49.87;29.97;;;6.60;99.90;;;;;;5024776;28;20023;-77
2022/03/16 02:56:57;;;;;;;45.70;26.17;;;6.60;99.90;;;;;;5037514;28;20112;-76
2022/03/16 02:59:23;;;;;;;49.92;27.13;;;6.50;99.90;;;;;;5028957;28;20028;-76
2022/03/16 03:01:48;;;;;;;46.47;28.40;;;6.40;99.90;;;;;;5034657;28;20039;-76
2022/03/16 03:04:14;;;;;;;50.33;28.92;;;6.40;99.90;;;;;;5023187;28;20156;-76
2022/03/16 03:06:40;;;;;;;44.15;25.30;;;6.50;99.90;;;;;;5028991;28;20120;-76
2022/03/16 03:09:05;;;;;;;44.67;25.88;;;6.40;99.90;;;;;;5021707;28;20018;-76
2022/03/16 03:11:31;;;;;;;45.05;26.02;;;6.30;99.90;;;;;;5023259;28;20033;-76
2022/03/16 03:13:57;;;;;;;48.90;28.38;;;6.30;99.90;;;;;;5038326;28;20033;-75
2022/03/16 03:16:22;;;;;;;46.95;27.45;;;6.30;99.90;;;;;;5029762;28;20044;-76
2022/03/16 03:18:48;;;;;;;50.80;28.63;;;6.20;99.90;;;;;;5036420;28;20493;-76
2022/03/16 03:21:13;;;;;;;45.28;26.98;;;6.20;99.90;;;;;;5028820;28;20109;-77
2022/03/16 03:23:39;;;;;;;48.40;29.13;;;6.30;99.90;;;;;;5041213;28;20028;-76
2022/03/16 03:26:05;;;;;;;50.65;28.17;;;6.40;99.90;;;;;;5042046;28;20545;-76
2022/03/16 03:28:30;;;;;;;48.92;28.30;;;6.30;99.90;;;;;;5032058;28;20053;-76
2022/03/16 03:30:56;;;;;;;45.25;27.73;;;6.40;99.90;;;;;;5038280;28;20556;-76
2022/03/16 03:33:21;;;;;;;50.38;29.58;;;6.40;99.90;;;;;;5047559;28;20021;-76
2022/03/16 03:35:48;;;;;;;52.33;28.15;;;6.40;99.90;;;;;;5032233;28;20033;-77
2022/03/16 03:38:16;;;;;;;47.53;27.42;;;6.50;99.90;;;;;;5037212;28;20444;-77
2022/03/16 03:40:42;;;;;;;53.05;30.63;;;6.40;99.90;;;;;;5035938;28;20480;-77
2022/03/16 03:43:07;;;;;;;51.85;32.47;;;6.40;99.90;;;;;;5037685;28;20021;-77
2022/03/16 03:45:33;;;;;;;47.42;30.00;;;6.40;99.90;;;;;;5036739;28;20045;-77
2022/03/16 03:47:59;;;;;;;48.20;28.52;;;6.50;99.90;;;;;;5031754;28;20035;-78
2022/03/16 03:50:24;;;;;;;50.17;30.83;;;6.50;99.90;;;;;;5042489;28;20033;-78
2022/03/16 03:52:50;;;;;;;46.75;28.23;;;6.40;99.90;;;;;;5026972;28;20060;-78
2022/03/16 03:55:16;;;;;;;43.38;26.00;;;6.40;99.90;;;;;;5043066;28;20043;-78
2022/03/16 03:57:41;;;;;;;54.60;31.50;;;6.40;99.90;;;;;;5027164;28;20047;-78
2022/03/16 04:00:08;;;;;;;52.85;29.63;;;6.40;99.90;;;;;;5027266;28;20036;-78
2022/03/16 04:02:33;;;;;;;52.72;28.90;;;6.30;99.90;;;;;;5038777;28;20037;-77
2022/03/16 04:05:02;;;;;;;51.70;30.60;;;6.30;99.90;;;;;;5033782;28;20160;-78
2022/03/16 04:07:28;;;;;;;59.15;31.35;;;6.40;99.90;;;;;;5035756;28;20112;-77
2022/03/16 04:09:54;;;;;;;53.00;32.00;;;6.30;99.90;;;;;;5031458;28;20108;-77
2022/03/16 04:12:19;;;;;;;52.10;30.90;;;6.30;99.90;;;;;;5040203;28;20033;-77
2022/03/16 04:14:45;;;;;;;48.85;29.52;;;6.30;99.90;;;;;;5049656;28;20079;-77
2022/03/16 04:17:11;;;;;;;51.67;28.17;;;6.40;99.90;;;;;;5040489;28;20025;-78
2022/03/16 04:19:36;;;;;;;49.17;28.80;;;6.40;99.90;;;;;;5032063;28;20381;-77
2022/03/16 04:22:02;;;;;;;48.35;29.33;;;6.50;99.90;;;;;;5040308;28;20104;-77
2022/03/16 04:24:28;;;;;;;50.67;28.63;;;6.50;99.90;;;;;;5027034;28;20053;-75
2022/03/16 04:26:54;;;;;;;48.92;28.05;;;6.50;99.90;;;;;;5037701;28;20041;-77
2022/03/16 04:29:20;;;;;;;43.20;26.13;;;6.50;99.90;;;;;;5041084;28;20021;-78
2022/03/16 04:31:45;;;;;;;49.85;29.00;;;6.50;99.90;;;;;;5037498;28;20078;-77
2022/03/16 04:34:11;;;;;;;48.50;28.02;;;6.50;99.90;;;;;;5030573;28;20049;-77
2022/03/16 04:36:36;;;;;;;49.17;28.70;;;6.50;99.90;;;;;;5029654;28;20098;-76
2022/03/16 04:39:02;;;;;;;43.10;26.25;;;6.50;99.90;;;;;;5036370;28;20490;-76
2022/03/16 04:41:28;;;;;;;45.58;25.73;;;6.50;99.90;;;;;;5037474;28;20036;-77
2022/03/16 04:43:54;;;;;;;43.45;25.95;;;6.60;99.90;;;;;;5054579;28;20478;-76
2022/03/16 04:46:19;;;;;;;51.20;29.65;;;6.60;99.90;;;;;;5038695;28;20578;-77
2022/03/16 04:48:45;;;;;;;43.15;26.52;;;6.60;99.90;;;;;;5030250;28;20486;-77
2022/03/16 04:51:11;;;;;;;44.78;27.13;;;6.50;99.90;;;;;;5030997;28;20067;-77
2022/03/16 04:53:37;;;;;;;46.45;27.95;;;6.50;99.90;;;;;;5029835;28;20025;-77
2022/03/16 04:56:02;;;;;;;46.40;27.60;;;6.50;99.90;;;;;;5037756;28;20173;-77
2022/03/16 04:58:28;;;;;;;43.50;26.85;;;6.50;99.90;;;;;;5032349;28;20478;-78
2022/03/16 05:00:54;;;;;;;38.90;24.30;;;6.50;99.90;;;;;;5033802;28;20446;-78
2022/03/16 05:03:19;;;;;;;43.40;26.77;;;6.40;99.90;;;;;;5035542;28;20026;-78
2022/03/16 05:05:47;;;;;;;38.50;24.42;;;6.40;99.90;;;;;;5030780;28;20049;-78
2022/03/16 05:08:12;;;;;;;42.58;26.83;;;6.40;99.90;;;;;;5037635;28;20025;-78
2022/03/16 05:10:38;;;;;;;44.92;26.33;;;6.40;99.90;;;;;;5028143;28;20029;-78
2022/03/16 05:13:04;;;;;;;45.15;26.45;;;6.40;99.90;;;;;;5042037;28;20034;-78
2022/03/16 05:15:29;;;;;;;47.58;27.90;;;6.40;99.90;;;;;;5043477;28;20037;-78
2022/03/16 05:17:55;;;;;;;49.28;28.55;;;6.30;99.90;;;;;;5041864;28;20029;-78
2022/03/16 05:20:21;;;;;;;44.03;26.98;;;6.30;99.90;;;;;;5026583;28;20920;-79
2022/03/16 05:22:49;;;;;;;51.15;30.63;;;6.20;99.90;;;;;;5038418;28;20440;-78
2022/03/16 05:25:20;;;;;;;45.40;27.98;;;6.20;99.90;;;;;;5039741;28;20045;-79
2022/03/16 05:27:46;;;;;;;48.70;29.27;;;6.10;99.90;;;;;;5046140;28;20025;-77
2022/03/16 05:30:13;;;;;;;46.47;27.40;;;6.20;99.90;;;;;;5027126;28;20116;-78
2022/03/16 05:32:41;;;;;;;52.85;31.77;;;6.20;99.90;;;;;;5033093;28;20021;-78
2022/03/16 05:35:08;;;;;;;53.83;32.03;;;6.10;99.90;;;;;;5035871;28;20030;-78
2022/03/16 05:37:35;;;;;;;48.00;28.75;;;6.00;99.90;;;;;;5037011;28;20032;-78
2022/03/16 05:40:01;;;;;;;58.22;32.30;;;6.00;99.90;;;;;;5040613;28;20383;-78
2022/03/16 05:42:27;;;;;;;65.07;36.40;;;6.00;99.90;;;;;;5026155;28;20029;-78
2022/03/16 05:44:54;;;;;;;56.80;31.77;;;6.00;99.90;;;;;;5031118;28;20040;-78
2022/03/16 05:47:23;;;;;;;65.50;34.58;;;6.00;99.90;;;;;;5038799;28;20025;-78
2022/03/16 05:49:53;;;;;;;65.72;37.47;;;6.10;99.90;;;;;;5025450;28;20091;-77
2022/03/16 05:52:21;;;;;;;62.88;35.45;;;6.00;99.90;;;;;;5026690;28;20037;-78
2022/03/16 05:54:55;;;;;;;63.50;36.40;;;6.10;99.90;;;;;;5040993;28;20026;-78
2022/03/16 05:57:21;;;;;;;65.95;38.00;;;6.10;99.90;;;;;;5034076;28;20021;-78
2022/03/16 05:59:48;;;;;;;57.38;36.03;;;6.10;99.90;;;;;;5036235;28;20544;-78
2022/03/16 06:02:14;;;;;;;65.60;37.38;;;6.10;99.90;;;;;;5027885;28;20030;-78
2022/03/16 06:04:43;;;;;;;59.13;35.00;;;6.10;99.90;;;;;;5035014;28;20389;-78
2022/03/16 06:07:09;;;;;;;68.38;38.13;;;6.20;99.90;;;;;;5028969;28;20029;-78
2022/03/16 06:09:35;;;;;;;61.28;36.00;;;6.10;99.90;;;;;;5026318;28;20390;-78
2022/03/16 06:12:02;;;;;;;59.35;35.15;;;6.20;99.90;;;;;;5044238;28;20025;-77
2022/03/16 06:14:28;;;;;;;55.20;32.97;;;6.20;99.90;;;;;;5039501;28;20030;-78
2022/03/16 06:16:53;;;;;;;53.17;32.35;;;6.20;99.90;;;;;;5026537;28;20029;-78
2022/03/16 06:19:20;;;;;;;65.50;42.67;;;6.20;99.90;;;;;;5039671;28;20519;-78
2022/03/16 06:21:46;;;;;;;61.78;38.05;;;6.20;99.90;;;;;;5039701;28;20033;-78
2022/03/16 06:24:12;;;;;;;63.97;37.30;;;6.30;99.90;;;;;;5025610;28;20152;-77
2022/03/16 06:26:39;;;;;;;52.58;32.88;;;6.30;99.90;;;;;;5034673;28;20405;-77
2022/03/16 06:29:05;;;;;;;57.20;34.42;;;6.40;99.90;;;;;;5030426;28;20490;-77
2022/03/16 06:31:31;;;;;;;60.60;34.15;;;6.30;99.90;;;;;;5030254;28;20033;-78
2022/03/16 06:33:57;;;;;;;69.07;38.17;;;6.40;99.90;;;;;;5044607;28;20088;-78
2022/03/16 06:36:23;;;;;;;65.30;37.88;;;6.30;99.90;;;;;;5032659;28;20488;-78
2022/03/16 06:38:48;;;;;;;74.80;39.35;;;6.30;99.90;;;;;;5033892;28;20058;-78
2022/03/16 06:41:14;;;;;;;61.70;34.85;;;6.30;99.90;;;;;;5044369;28;20095;-78
2022/03/16 06:43:40;;;;;;;61.13;35.72;;;6.40;99.90;;;;;;5045487;28;20053;-78
2022/03/16 06:46:06;;;;;;;62.47;36.08;;;6.40;99.90;;;;;;5036844;28;20042;-77
2022/03/16 06:48:32;;;;;;;61.55;36.90;;;6.40;99.90;;;;;;5038471;28;20033;-78
2022/03/16 06:50:58;;;;;;;62.33;34.95;;;6.40;99.90;;;;;;5030367;28;20026;-77
2022/03/16 06:53:24;;;;;;;58.25;34.45;;;6.50;99.90;;;;;;5033925;28;20549;-77
2022/03/16 06:55:50;;;;;;;60.97;33.42;;;6.50;99.90;;;;;;5035282;28;20022;-77
2022/03/16 06:58:16;;;;;;;61.15;34.45;;;6.60;99.90;;;;;;5034280;28;20031;-77
2022/03/16 07:00:42;;;;;;;61.22;35.67;;;6.50;99.90;;;;;;5044516;28;20025;-78
2022/03/16 07:03:07;;;;;;;58.60;34.80;;;6.50;99.90;;;;;;5029127;28;20109;-77
2022/03/16 07:05:36;;;;;;;59.83;34.85;;;6.50;99.90;;;;;;5028522;28;20034;-77
2022/03/16 07:08:07;;;;;;;55.45;32.30;;;6.60;99.90;;;;;;5034483;28;20055;-76
2022/03/16 07:10:34;;;;;;;55.88;33.45;;;6.70;99.90;;;;;;5039359;28;20413;-77
2022/03/16 07:13:00;;;;;;;57.53;34.72;;;6.80;99.90;;;;;;5024740;28;20022;-78
2022/03/16 07:15:26;;;;;;;54.70;32.55;;;6.80;99.90;;;;;;5039623;28;20059;-78
2022/03/16 07:17:52;;;;;;;51.35;29.33;;;6.80;99.90;;;;;;5025957;28;20037;-77
2022/03/16 07:20:18;;;;;;;55.13;32.58;;;6.90;99.90;;;;;;5039603;28;20040;-77
2022/03/16 07:22:44;;;;;;;51.88;31.65;;;7.00;99.90;;;;;;5039286;28;20017;-77
2022/03/16 07:25:10;;;;;;;59.08;32.05;;;7.10;99.90;;;;;;5038844;28;20036;-77
2022/03/16 07:27:37;;;;;;;48.55;31.30;;;7.10;99.90;;;;;;5042622;28;20033;-78
2022/03/16 07:30:08;;;;;;;53.75;32.05;;;7.00;99.90;;;;;;5038653;28;20367;-77
2022/03/16 07:32:41;;;;;;;47.13;28.70;;;7.00;99.90;;;;;;5032426;28;20028;-77
2022/03/16 07:35:11;;;;;;;46.65;29.95;;;7.10;99.90;;;;;;5032171;28;20061;-77
2022/03/16 07:37:38;;;;;;;44.83;28.33;;;7.20;99.90;;;;;;5039893;28;20033;-78
2022/03/16 07:40:05;;;;;;;44.22;26.85;;;7.20;99.90;;;;;;5034612;28;20449;-79
2022/03/16 07:42:31;;;;;;;45.25;26.65;;;7.20;99.90;;;;;;5039809;28;20022;-77
2022/03/16 07:44:58;;;;;;;43.05;26.80;;;7.30;99.90;;;;;;5027862;28;20063;-77
2022/03/16 07:47:25;;;;;;;38.40;24.38;;;7.30;99.90;;;;;;5029789;28;20090;-77
2022/03/16 07:49:51;;;;;;;41.67;25.27;;;7.40;99.90;;;;;;5037284;28;20029;-77
2022/03/16 07:52:17;;;;;;;38.00;22.95;;;7.50;99.90;;;;;;5049905;28;20083;-78
2022/03/16 07:54:43;;;;;;;34.78;23.05;;;7.50;99.90;;;;;;5035677;28;20029;-78
2022/03/16 07:57:09;;;;;;;37.30;22.35;;;7.50;99.90;;;;;;5038081;28;20057;-77
2022/03/16 07:59:35;;;;;;;36.13;22.98;;;7.60;99.90;;;;;;5029333;28;20486;-79
2022/03/16 08:02:01;;;;;;;38.17;22.70;;;7.60;99.90;;;;;;5028189;28;20039;-78
2022/03/16 08:04:26;;;;;;;33.90;22.25;;;7.70;99.90;;;;;;5035937;28;20029;-78
2022/03/16 08:06:52;;;;;;;35.17;22.08;;;7.80;99.90;;;;;;5029482;28;20036;-79
2022/03/16 08:09:18;;;;;;;36.13;21.30;;;7.90;99.90;;;;;;5039908;28;20450;-76
2022/03/16 08:11:43;;;;;;;35.13;22.25;;;7.90;99.90;;;;;;5030506;28;20029;-76
2022/03/16 08:14:09;;;;;;;34.53;22.45;;;8.00;99.90;;;;;;5037108;28;20022;-76
2022/03/16 08:16:35;;;;;;;35.92;22.77;;;8.10;99.90;;;;;;5044421;28;20044;-77
2022/03/16 08:19:00;;;;;;;37.70;22.95;;;8.20;99.90;;;;;;5030041;28;20027;-76
2022/03/16 08:21:26;;;;;;;37.40;23.80;;;8.20;99.90;;;;;;5033886;28;20037;-76
2022/03/16 08:23:53;;;;;;;38.20;22.27;;;8.30;99.90;;;;;;5031057;28;20022;-76
2022/03/16 08:26:19;;;;;;;36.95;21.13;;;8.40;99.90;;;;;;5036509;28;20044;-77
2022/03/16 08:28:45;;;;;;;37.78;21.88;;;8.40;99.90;;;;;;5029134;28;20394;-77
2022/03/16 08:31:11;;;;;;;34.65;21.50;;;8.60;99.90;;;;;;5042415;28;20083;-76
2022/03/16 08:33:37;;;;;;;35.33;22.33;;;8.70;99.90;;;;;;5027923;28;20116;-76
2022/03/16 08:36:07;;;;;;;36.63;21.50;;;8.90;99.90;;;;;;5031698;28;20522;-76
2022/03/16 08:38:36;;;;;;;32.13;20.30;;;9.00;99.90;;;;;;5043802;28;20025;-77
2022/03/16 08:41:02;;;;;;;35.15;22.98;;;8.90;99.90;;;;;;5041573;28;20897;-76
2022/03/16 08:43:28;;;;;;;33.85;21.48;;;9.00;99.90;;;;;;5030362;28;20024;-78
2022/03/16 08:45:54;;;;;;;34.13;21.98;;;9.10;99.90;;;;;;5041326;28;20037;-76
2022/03/16 08:48:19;;;;;;;35.42;22.88;;;9.10;99.90;;;;;;5042330;28;20034;-79
2022/03/16 08:50:45;;;;;;;33.85;21.60;;;9.20;99.90;;;;;;5024672;28;20030;-77
2022/03/16 08:53:11;;;;;;;32.70;21.45;;;9.30;99.90;;;;;;5041781;28;20086;-77
2022/03/16 08:55:37;;;;;;;34.10;20.98;;;9.30;99.90;;;;;;5040379;28;20033;-76
2022/03/16 08:58:03;;;;;;;33.63;21.60;;;9.50;99.90;;;;;;5031654;28;20040;-77
2022/03/16 09:00:29;;;;;;;31.95;20.77;;;9.60;99.90;;;;;;5034638;28;20032;-77
2022/03/16 09:02:56;;;;;;;34.75;21.75;;;9.80;99.90;;;;;;5049024;28;20083;-78
2022/03/16 09:05:22;;;;;;;31.20;20.20;;;9.90;99.90;;;;;;5036325;28;20030;-77
2022/03/16 09:07:48;;;;;;;30.10;19.75;;;10.10;99.90;;;;;;5033097;28;20021;-78
2022/03/16 09:10:14;;;;;;;31.95;20.40;;;10.20;99.90;;;;;;5031499;28;20044;-77
2022/03/16 09:12:40;;;;;;;31.98;19.67;;;10.30;99.90;;;;;;5034769;28;20493;-78
2022/03/16 09:15:06;;;;;;;33.97;21.63;;;10.40;99.90;;;;;;5038181;28;20033;-79
2022/03/16 09:17:33;;;;;;;30.67;21.60;;;10.50;99.90;;;;;;5042718;28;20026;-78
2022/03/16 09:20:00;;;;;;;28.00;18.83;;;10.70;99.90;;;;;;5044722;28;20021;-80
2022/03/16 09:22:26;;;;;;;28.35;18.15;;;10.80;99.90;;;;;;5046482;28;20538;-79
2022/03/16 09:24:52;;;;;;;27.65;17.77;;;10.80;99.90;;;;;;5047087;28;20025;-79
2022/03/16 09:27:17;;;;;;;25.85;18.23;;;10.80;99.90;;;;;;5045471;28;20048;-79
2022/03/16 09:29:46;;;;;;;26.92;19.05;;;10.80;99.90;;;;;;5033797;28;20060;-79
2022/03/16 09:32:13;;;;;;;24.92;17.75;;;11.00;99.90;;;;;;5028968;28;20127;-79
2022/03/16 09:34:40;;;;;;;27.75;19.30;;;11.00;99.90;;;;;;5028848;28;20024;-78
2022/03/16 09:37:07;;;;;;;30.52;18.83;;;11.10;99.90;;;;;;5035328;28;20382;-79
2022/03/16 09:39:34;;;;;;;26.02;17.17;;;11.20;99.90;;;;;;5028836;28;20071;-79
2022/03/16 09:42:00;;;;;;;28.45;17.88;;;11.40;99.90;;;;;;5027975;28;20021;-79
2022/03/16 09:44:28;;;;;;;30.58;20.08;;;11.40;99.90;;;;;;5043265;28;20029;-78
2022/03/16 09:46:56;;;;;;;24.70;17.08;;;11.50;99.90;;;;;;5034749;28;20064;-78
2022/03/16 09:49:24;;;;;;;21.88;16.02;;;11.60;99.90;;;;;;5031280;28;20075;-79
2022/03/16 09:51:53;;;;;;;24.25;17.10;;;11.70;99.90;;;;;;5033836;28;20028;-81
2022/03/16 09:54:19;;;;;;;23.15;16.75;;;11.80;99.90;;;;;;5034951;28;20025;-81
2022/03/16 09:56:46;;;;;;;22.60;15.68;;;12.00;99.90;;;;;;5033820;28;20434;-80
2022/03/16 09:59:11;;;;;;;24.33;16.38;;;12.10;99.90;;;;;;5028384;28;20025;-80
2022/03/16 10:01:37;;;;;;;24.05;15.65;;;12.20;99.90;;;;;;5033035;28;20026;-80
2022/03/16 10:04:06;;;;;;;22.75;16.27;;;12.20;99.90;;;;;;5035331;28;20029;-79
2022/03/16 10:06:39;;;;;;;23.95;16.67;;;12.40;99.90;;;;;;5030283;28;20044;-80
2022/03/16 10:15:12;;;;;;;20.92;14.63;;;12.60;99.90;;;;;;5028123;28;20041;-77
2022/03/16 10:17:45;;;;;;;22.77;17.40;;;12.70;99.90;;;;;;5030984;28;20026;-83
2022/03/16 10:20:35;;;;;;;21.00;15.48;;;12.80;99.90;;;;;;5034254;28;20026;-84
2022/03/16 10:23:07;;;;;;;23.27;16.45;;;13.10;99.90;;;;;;5028424;28;20026;-81
2022/03/16 10:25:42;;;;;;;22.90;16.70;;;13.10;99.90;;;;;;5029319;28;20041;-83
2022/03/16 10:28:10;;;;;;;22.70;16.73;;;13.10;99.90;;;;;;5031589;28;20052;-81
2022/03/16 10:30:58;;;;;;;28.05;14.23;;;13.10;99.90;;;;;;5035408;28;20021;-83
2022/03/16 10:33:32;;;;;;;19.15;14.15;;;13.20;99.90;;;;;;5027171;28;20030;-81
2022/03/16 10:36:01;;;;;;;23.00;14.77;;;13.20;99.90;;;;;;5023485;28;20022;-81
2022/03/16 10:38:28;;;;;;;22.17;15.75;;;13.10;99.90;;;;;;5028731;28;20107;-81
2022/03/16 10:40:56;;;;;;;22.90;15.88;;;13.50;99.90;;;;;;5030790;28;20030;-80
2022/03/16 10:49:04;;;;;;;21.45;15.40;;;13.10;99.90;;;;;;5030501;28;20499;-78
2022/03/16 10:51:31;;;;;;;19.33;14.07;;;13.30;99.90;;;;;;5027571;28;20110;-77
2022/03/16 10:53:59;;;;;;;19.88;14.15;;;13.20;99.90;;;;;;5026824;28;20092;-77
2022/03/16 10:56:27;;;;;;;21.67;13.35;;;13.20;99.90;;;;;;5028055;28;20036;-78
2022/03/16 10:58:54;;;;;;;20.08;12.13;;;13.30;99.90;;;;;;5031292;28;20026;-78
2022/03/16 11:01:21;;;;;;;18.42;12.65;;;13.20;99.90;;;;;;5026457;28;20029;-78
2022/03/16 11:03:49;;;;;;;23.55;16.17;;;13.30;99.90;;;;;;5030904;28;20032;-77
2022/03/16 11:06:25;;;;;;;19.75;14.50;;;13.40;99.90;;;;;;5036095;28;20527;-79
2022/03/16 11:08:51;;;;;;;17.45;13.32;;;13.40;99.90;;;;;;5026975;28;20028;-78
2022/03/16 11:14:03;;;;;;;20.00;15.10;;;13.50;99.90;;;;;;5033973;28;20116;-79
2022/03/16 11:16:31;;;;;;;20.17;14.38;;;13.60;99.90;;;;;;5032302;28;20506;-77
2022/03/16 11:18:59;;;;;;;20.75;14.27;;;13.70;99.90;;;;;;5029745;28;20120;-79
2022/03/16 11:21:37;;;;;;;18.88;14.48;;;13.60;99.90;;;;;;5028886;28;20032;-78
2022/03/16 11:24:16;;;;;;;19.23;13.85;;;13.80;99.90;;;;;;5022836;28;20034;-77
2022/03/16 11:27:07;;;;;;;23.30;15.20;;;13.90;99.90;;;;;;5036843;28;20076;-78
2022/03/16 11:30:07;;;;;;;20.05;14.02;;;13.90;99.90;;;;;;5031722;28;20033;-79
2022/03/16 11:32:38;;;;;;;21.83;15.02;;;13.90;99.90;;;;;;5028602;28;20215;-77
2022/03/16 11:35:12;;;;;;;21.80;14.10;;;14.00;99.90;;;;;;5028238;28;20111;-78
2022/03/16 11:37:44;;;;;;;17.55;13.13;;;14.10;99.90;;;;;;5038697;28;20028;-78
2022/03/16 11:40:14;;;;;;;18.52;14.43;;;14.30;99.90;;;;;;5031132;28;20032;-77
2022/03/16 11:43:11;;;;;;;18.92;14.20;;;14.20;99.90;;;;;;5033023;28;20062;-77
2022/03/16 11:45:37;;;;;;;19.85;13.93;;;14.20;99.90;;;;;;5045736;28;20486;-77
2022/03/16 11:48:34;;;;;;;18.48;14.82;;;14.30;99.90;;;;;;5027660;28;20026;-79
2022/03/16 11:51:08;;;;;;;17.95;13.65;;;14.20;99.90;;;;;;5037812;28;20033;-78
2022/03/16 11:53:51;;;;;;;17.13;12.00;;;14.30;99.90;;;;;;5030807;28;20032;-76
2022/03/16 11:56:21;;;;;;;20.42;13.23;;;14.20;99.90;;;;;;5036227;28;20037;-77
2022/03/16 11:58:48;;;;;;;18.83;13.30;;;14.10;99.90;;;;;;5027676;28;20022;-76
2022/03/16 12:01:39;;;;;;;18.65;13.35;;;14.10;99.90;;;;;;5039441;28;20025;-77
2022/03/16 12:04:11;;;;;;;18.58;14.02;;;14.10;99.90;;;;;;5024677;28;20061;-77
2022/03/16 12:07:04;;;;;;;20.08;14.48;;;14.10;99.90;;;;;;5035796;28;20060;-78
2022/03/16 12:09:51;;;;;;;19.40;13.23;;;14.10;99.90;;;;;;5032152;28;20058;-77
2022/03/16 12:15:34;;;;;;;19.92;13.73;;;14.00;99.90;;;;;;5022564;28;20747;-79
2022/03/16 12:18:00;;;;;;;19.48;12.75;;;14.10;99.90;;;;;;5035995;28;20018;-79
2022/03/16 12:20:49;;;;;;;20.27;14.43;;;14.00;99.90;;;;;;5035083;28;20052;-79
2022/03/16 12:23:38;;;;;;;19.20;14.30;;;14.10;99.90;;;;;;5038808;28;20025;-78
2022/03/16 12:26:05;;;;;;;21.98;13.35;;;14.20;99.90;;;;;;5031512;28;20112;-78
2022/03/16 12:31:18;;;;;;;15.77;13.10;;;14.40;99.90;;;;;;5030088;28;20459;-77
2022/03/16 12:33:52;;;;;;;18.98;13.73;;;14.50;99.90;;;;;;5034767;28;20508;-78
2022/03/16 12:36:30;;;;;;;16.98;13.90;;;14.60;99.90;;;;;;5026825;28;20042;-80
2022/03/16 12:39:14;;;;;;;18.38;14.20;;;14.50;99.90;;;;;;5034246;28;20029;-80
2022/03/16 12:44:25;;;;;;;18.67;13.73;;;14.50;99.90;;;;;;5033828;28;20485;-79
2022/03/16 12:46:56;;;;;;;21.52;14.40;;;14.50;99.90;;;;;;5039865;28;20038;-81
2022/03/16 12:49:23;;;;;;;20.70;14.80;;;14.40;99.90;;;;;;5021837;28;20409;-81
2022/03/16 12:51:55;;;;;;;17.60;14.00;;;14.40;99.90;;;;;;5030856;28;20053;-80
2022/03/16 12:54:23;;;;;;;20.30;15.38;;;14.50;99.90;;;;;;5032578;28;20110;-81
2022/03/16 12:56:51;;;;;;;18.73;14.10;;;14.40;99.90;;;;;;5036818;28;20025;-82
2022/03/16 12:59:28;;;;;;;19.08;14.35;;;14.50;99.90;;;;;;5040817;28;20064;-78